sensor_id;sensor_type;location;lat;lon;timestamp;P1;durP1;ratioP1;P2;durP2;ratioP2
80961;SDS011;70424;55.154;14.722;2023-07-31T00:00:10;11.90;;;2.83;;
80961;SDS011;70424;55.154;14.722;2023-07-31T00:02:36;10.70;;;2.88;;
80961;SDS011;70424;55.154;14.722;2023-07-31T00:05:01;8.45;;;2.55;;
80961;SDS011;70424;55.154;14.722;2023-07-31T00:07:27;8.88;;;2.47;;
80961;SDS011;70424;55.154;14.722;2023-07-31T00:09:52;7.10;;;2.35;;
80961;SDS011;70424;55.154;14.722;2023-07-31T00:12:18;7.55;;;2.45;;
80961;SDS011;70424;55.154;14.722;2023-07-31T00:14:45;8.32;;;2.00;;
80961;SDS011;70424;55.154;14.722;2023-07-31T00:17:10;7.13;;;2.25;;
80961;SDS011;70424;55.154;14.722;2023-07-31T00:19:36;8.75;;;2.33;;
80961;SDS011;70424;55.154;14.722;2023-07-31T00:22:01;6.35;;;2.65;;
80961;SDS011;70424;55.154;14.722;2023-07-31T00:24:27;8.88;;;2.20;;
80961;SDS011;70424;55.154;14.722;2023-07-31T00:26:52;5.28;;;1.92;;
80961;SDS011;70424;55.154;14.722;2023-07-31T00:29:17;9.30;;;2.65;;
80961;SDS011;70424;55.154;14.722;2023-07-31T00:31:42;7.18;;;2.28;;
80961;SDS011;70424;55.154;14.722;2023-07-31T00:34:08;8.68;;;2.67;;
80961;SDS011;70424;55.154;14.722;2023-07-31T00:36:33;5.68;;;2.00;;
80961;SDS011;70424;55.154;14.722;2023-07-31T00:38:58;8.98;;;3.08;;
80961;SDS011;70424;55.154;14.722;2023-07-31T00:41:24;9.50;;;2.60;;
80961;SDS011;70424;55.154;14.722;2023-07-31T00:43:49;9.85;;;2.13;;
80961;SDS011;70424;55.154;14.722;2023-07-31T00:46:14;7.50;;;2.20;;
80961;SDS011;70424;55.154;14.722;2023-07-31T00:48:40;7.35;;;2.10;;
80961;SDS011;70424;55.154;14.722;2023-07-31T00:51:06;8.20;;;2.22;;
80961;SDS011;70424;55.154;14.722;2023-07-31T00:53:32;9.35;;;2.58;;
80961;SDS011;70424;55.154;14.722;2023-07-31T00:55:58;11.93;;;2.53;;
80961;SDS011;70424;55.154;14.722;2023-07-31T00:58:24;9.88;;;2.80;;
80961;SDS011;70424;55.154;14.722;2023-07-31T01:00:49;8.32;;;2.22;;
80961;SDS011;70424;55.154;14.722;2023-07-31T01:03:15;8.68;;;2.40;;
80961;SDS011;70424;55.154;14.722;2023-07-31T01:08:19;7.28;;;2.00;;
80961;SDS011;70424;55.154;14.722;2023-07-31T01:11:04;8.40;;;2.22;;
80961;SDS011;70424;55.154;14.722;2023-07-31T01:13:37;10.48;;;2.50;;
80961;SDS011;70424;55.154;14.722;2023-07-31T01:16:03;9.20;;;2.40;;
80961;SDS011;70424;55.154;14.722;2023-07-31T01:18:28;9.43;;;2.55;;
80961;SDS011;70424;55.154;14.722;2023-07-31T01:20:54;7.55;;;2.50;;
80961;SDS011;70424;55.154;14.722;2023-07-31T01:23:50;7.00;;;2.30;;
80961;SDS011;70424;55.154;14.722;2023-07-31T01:26:27;8.30;;;2.17;;
80961;SDS011;70424;55.154;14.722;2023-07-31T01:31:26;8.77;;;2.47;;
80961;SDS011;70424;55.154;14.722;2023-07-31T01:33:54;7.90;;;2.10;;
80961;SDS011;70424;55.154;14.722;2023-07-31T01:36:22;7.20;;;2.47;;
80961;SDS011;70424;55.154;14.722;2023-07-31T01:38:48;6.43;;;2.05;;
80961;SDS011;70424;55.154;14.722;2023-07-31T01:41:16;6.68;;;2.33;;
80961;SDS011;70424;55.154;14.722;2023-07-31T01:43:50;7.97;;;2.30;;
80961;SDS011;70424;55.154;14.722;2023-07-31T01:46:15;5.22;;;1.90;;
80961;SDS011;70424;55.154;14.722;2023-07-31T01:48:41;6.63;;;1.60;;
80961;SDS011;70424;55.154;14.722;2023-07-31T01:51:06;8.10;;;2.30;;
80961;SDS011;70424;55.154;14.722;2023-07-31T01:53:31;5.80;;;1.73;;
80961;SDS011;70424;55.154;14.722;2023-07-31T01:55:57;5.95;;;1.60;;
80961;SDS011;70424;55.154;14.722;2023-07-31T01:58:22;4.30;;;1.85;;
80961;SDS011;70424;55.154;14.722;2023-07-31T02:00:48;5.25;;;2.17;;
80961;SDS011;70424;55.154;14.722;2023-07-31T02:03:13;6.03;;;1.73;;
80961;SDS011;70424;55.154;14.722;2023-07-31T02:05:47;7.82;;;2.10;;
80961;SDS011;70424;55.154;14.722;2023-07-31T02:08:14;7.25;;;1.60;;
80961;SDS011;70424;55.154;14.722;2023-07-31T02:10:39;6.03;;;1.77;;
80961;SDS011;70424;55.154;14.722;2023-07-31T02:13:05;7.20;;;2.22;;
80961;SDS011;70424;55.154;14.722;2023-07-31T02:15:30;5.60;;;1.92;;
80961;SDS011;70424;55.154;14.722;2023-07-31T02:17:56;9.65;;;2.30;;
80961;SDS011;70424;55.154;14.722;2023-07-31T02:20:21;3.20;;;1.50;;
80961;SDS011;70424;55.154;14.722;2023-07-31T02:22:47;6.68;;;1.98;;
80961;SDS011;70424;55.154;14.722;2023-07-31T02:25:12;9.25;;;2.30;;
80961;SDS011;70424;55.154;14.722;2023-07-31T02:27:38;6.50;;;2.05;;
80961;SDS011;70424;55.154;14.722;2023-07-31T02:30:03;5.55;;;1.63;;
80961;SDS011;70424;55.154;14.722;2023-07-31T02:32:29;5.60;;;1.92;;
80961;SDS011;70424;55.154;14.722;2023-07-31T02:34:54;7.47;;;2.03;;
80961;SDS011;70424;55.154;14.722;2023-07-31T02:37:19;6.20;;;1.90;;
80961;SDS011;70424;55.154;14.722;2023-07-31T02:39:45;5.60;;;1.63;;
80961;SDS011;70424;55.154;14.722;2023-07-31T02:42:10;7.32;;;2.00;;
80961;SDS011;70424;55.154;14.722;2023-07-31T02:44:35;6.90;;;2.47;;
80961;SDS011;70424;55.154;14.722;2023-07-31T02:47:01;7.07;;;2.10;;
80961;SDS011;70424;55.154;14.722;2023-07-31T02:49:26;8.48;;;2.33;;
80961;SDS011;70424;55.154;14.722;2023-07-31T02:51:51;4.90;;;1.67;;
80961;SDS011;70424;55.154;14.722;2023-07-31T02:54:17;10.60;;;2.15;;
80961;SDS011;70424;55.154;14.722;2023-07-31T02:56:42;7.50;;;2.20;;
80961;SDS011;70424;55.154;14.722;2023-07-31T02:59:07;8.18;;;2.00;;
80961;SDS011;70424;55.154;14.722;2023-07-31T03:01:33;7.07;;;1.63;;
80961;SDS011;70424;55.154;14.722;2023-07-31T03:03:58;6.90;;;1.95;;
80961;SDS011;70424;55.154;14.722;2023-07-31T03:06:23;5.10;;;1.80;;
80961;SDS011;70424;55.154;14.722;2023-07-31T03:08:49;6.53;;;2.10;;
80961;SDS011;70424;55.154;14.722;2023-07-31T03:11:14;7.05;;;2.15;;
80961;SDS011;70424;55.154;14.722;2023-07-31T03:13:39;5.80;;;2.10;;
80961;SDS011;70424;55.154;14.722;2023-07-31T03:16:05;10.43;;;2.10;;
80961;SDS011;70424;55.154;14.722;2023-07-31T03:18:30;7.25;;;2.10;;
80961;SDS011;70424;55.154;14.722;2023-07-31T03:20:55;6.00;;;2.08;;
80961;SDS011;70424;55.154;14.722;2023-07-31T03:23:21;4.63;;;1.70;;
80961;SDS011;70424;55.154;14.722;2023-07-31T03:25:56;10.07;;;2.53;;
80961;SDS011;70424;55.154;14.722;2023-07-31T03:28:22;9.18;;;2.38;;
80961;SDS011;70424;55.154;14.722;2023-07-31T03:30:48;7.00;;;2.00;;
80961;SDS011;70424;55.154;14.722;2023-07-31T03:33:13;7.28;;;2.17;;
80961;SDS011;70424;55.154;14.722;2023-07-31T03:35:38;7.78;;;2.15;;
80961;SDS011;70424;55.154;14.722;2023-07-31T03:38:04;8.60;;;2.22;;
80961;SDS011;70424;55.154;14.722;2023-07-31T03:40:29;8.50;;;2.22;;
80961;SDS011;70424;55.154;14.722;2023-07-31T03:42:54;6.75;;;1.52;;
80961;SDS011;70424;55.154;14.722;2023-07-31T03:45:19;6.53;;;2.03;;
80961;SDS011;70424;55.154;14.722;2023-07-31T03:47:45;9.45;;;2.25;;
80961;SDS011;70424;55.154;14.722;2023-07-31T03:50:10;9.75;;;2.28;;
80961;SDS011;70424;55.154;14.722;2023-07-31T03:52:35;7.13;;;2.25;;
80961;SDS011;70424;55.154;14.722;2023-07-31T03:55:01;8.10;;;1.92;;
80961;SDS011;70424;55.154;14.722;2023-07-31T03:57:26;8.60;;;2.25;;
80961;SDS011;70424;55.154;14.722;2023-07-31T03:59:52;7.90;;;1.80;;
80961;SDS011;70424;55.154;14.722;2023-07-31T04:02:17;7.53;;;2.00;;
80961;SDS011;70424;55.154;14.722;2023-07-31T04:04:43;6.43;;;1.98;;
80961;SDS011;70424;55.154;14.722;2023-07-31T04:07:09;7.20;;;2.10;;
80961;SDS011;70424;55.154;14.722;2023-07-31T04:09:34;7.03;;;2.10;;
80961;SDS011;70424;55.154;14.722;2023-07-31T04:11:59;6.32;;;2.25;;
80961;SDS011;70424;55.154;14.722;2023-07-31T04:14:24;4.13;;;1.83;;
80961;SDS011;70424;55.154;14.722;2023-07-31T04:16:50;9.98;;;2.53;;
80961;SDS011;70424;55.154;14.722;2023-07-31T04:19:15;10.55;;;2.40;;
80961;SDS011;70424;55.154;14.722;2023-07-31T04:21:41;6.53;;;2.17;;
80961;SDS011;70424;55.154;14.722;2023-07-31T04:24:07;9.15;;;2.47;;
80961;SDS011;70424;55.154;14.722;2023-07-31T04:26:32;9.48;;;2.65;;
80961;SDS011;70424;55.154;14.722;2023-07-31T04:28:58;6.13;;;1.88;;
80961;SDS011;70424;55.154;14.722;2023-07-31T04:31:23;6.80;;;2.30;;
80961;SDS011;70424;55.154;14.722;2023-07-31T04:33:48;7.93;;;1.90;;
80961;SDS011;70424;55.154;14.722;2023-07-31T04:36:14;9.25;;;2.88;;
80961;SDS011;70424;55.154;14.722;2023-07-31T04:38:39;8.73;;;2.20;;
80961;SDS011;70424;55.154;14.722;2023-07-31T04:41:06;4.85;;;2.20;;
80961;SDS011;70424;55.154;14.722;2023-07-31T04:43:31;7.50;;;2.10;;
80961;SDS011;70424;55.154;14.722;2023-07-31T04:45:56;5.88;;;1.65;;
80961;SDS011;70424;55.154;14.722;2023-07-31T04:48:23;9.25;;;2.50;;
80961;SDS011;70424;55.154;14.722;2023-07-31T04:50:48;9.23;;;2.35;;
80961;SDS011;70424;55.154;14.722;2023-07-31T04:53:14;6.80;;;2.08;;
80961;SDS011;70424;55.154;14.722;2023-07-31T04:55:39;9.02;;;2.15;;
80961;SDS011;70424;55.154;14.722;2023-07-31T04:58:04;8.63;;;1.77;;
80961;SDS011;70424;55.154;14.722;2023-07-31T05:00:30;7.57;;;2.30;;
80961;SDS011;70424;55.154;14.722;2023-07-31T05:02:55;5.88;;;2.00;;
80961;SDS011;70424;55.154;14.722;2023-07-31T05:05:21;4.85;;;1.52;;
80961;SDS011;70424;55.154;14.722;2023-07-31T05:07:46;4.25;;;1.80;;
80961;SDS011;70424;55.154;14.722;2023-07-31T05:10:11;6.35;;;2.08;;
80961;SDS011;70424;55.154;14.722;2023-07-31T05:12:37;7.30;;;1.73;;
80961;SDS011;70424;55.154;14.722;2023-07-31T05:15:02;5.05;;;1.98;;
80961;SDS011;70424;55.154;14.722;2023-07-31T05:17:28;5.95;;;2.00;;
80961;SDS011;70424;55.154;14.722;2023-07-31T05:19:53;4.45;;;1.52;;
80961;SDS011;70424;55.154;14.722;2023-07-31T05:22:18;5.55;;;2.10;;
80961;SDS011;70424;55.154;14.722;2023-07-31T05:24:44;6.70;;;1.88;;
80961;SDS011;70424;55.154;14.722;2023-07-31T05:27:10;4.05;;;1.90;;
80961;SDS011;70424;55.154;14.722;2023-07-31T05:29:35;6.78;;;1.73;;
80961;SDS011;70424;55.154;14.722;2023-07-31T05:32:01;3.67;;;1.80;;
80961;SDS011;70424;55.154;14.722;2023-07-31T05:34:26;4.82;;;1.70;;
80961;SDS011;70424;55.154;14.722;2023-07-31T05:36:52;3.50;;;1.55;;
80961;SDS011;70424;55.154;14.722;2023-07-31T05:39:17;6.35;;;1.75;;
80961;SDS011;70424;55.154;14.722;2023-07-31T05:41:44;5.45;;;1.67;;
80961;SDS011;70424;55.154;14.722;2023-07-31T05:44:10;5.47;;;1.70;;
80961;SDS011;70424;55.154;14.722;2023-07-31T05:46:35;5.82;;;2.13;;
80961;SDS011;70424;55.154;14.722;2023-07-31T05:49:00;3.10;;;1.67;;
80961;SDS011;70424;55.154;14.722;2023-07-31T05:51:26;4.25;;;1.50;;
80961;SDS011;70424;55.154;14.722;2023-07-31T05:53:52;6.88;;;1.67;;
80961;SDS011;70424;55.154;14.722;2023-07-31T05:56:18;3.55;;;1.60;;
80961;SDS011;70424;55.154;14.722;2023-07-31T05:58:43;5.03;;;1.63;;
80961;SDS011;70424;55.154;14.722;2023-07-31T06:01:08;3.53;;;1.27;;
80961;SDS011;70424;55.154;14.722;2023-07-31T06:03:34;4.30;;;1.65;;
80961;SDS011;70424;55.154;14.722;2023-07-31T06:05:59;2.55;;;1.38;;
80961;SDS011;70424;55.154;14.722;2023-07-31T06:08:24;4.20;;;1.40;;
80961;SDS011;70424;55.154;14.722;2023-07-31T06:10:50;4.53;;;1.52;;
80961;SDS011;70424;55.154;14.722;2023-07-31T06:13:15;4.13;;;1.23;;
80961;SDS011;70424;55.154;14.722;2023-07-31T06:15:40;3.08;;;1.33;;
80961;SDS011;70424;55.154;14.722;2023-07-31T06:18:06;4.20;;;1.35;;
80961;SDS011;70424;55.154;14.722;2023-07-31T06:20:33;4.68;;;1.30;;
80961;SDS011;70424;55.154;14.722;2023-07-31T06:22:59;2.25;;;1.27;;
80961;SDS011;70424;55.154;14.722;2023-07-31T06:25:24;4.30;;;1.42;;
80961;SDS011;70424;55.154;14.722;2023-07-31T06:27:50;4.43;;;1.20;;
80961;SDS011;70424;55.154;14.722;2023-07-31T06:30:15;4.55;;;1.40;;
80961;SDS011;70424;55.154;14.722;2023-07-31T06:32:40;4.80;;;1.33;;
80961;SDS011;70424;55.154;14.722;2023-07-31T06:35:06;4.68;;;1.27;;
80961;SDS011;70424;55.154;14.722;2023-07-31T06:37:31;3.67;;;1.13;;
80961;SDS011;70424;55.154;14.722;2023-07-31T06:39:57;3.72;;;1.50;;
80961;SDS011;70424;55.154;14.722;2023-07-31T06:42:22;4.57;;;1.42;;
80961;SDS011;70424;55.154;14.722;2023-07-31T06:44:48;2.78;;;1.25;;
80961;SDS011;70424;55.154;14.722;2023-07-31T06:47:13;5.00;;;1.30;;
80961;SDS011;70424;55.154;14.722;2023-07-31T06:49:39;5.10;;;1.27;;
80961;SDS011;70424;55.154;14.722;2023-07-31T06:52:04;3.67;;;1.38;;
80961;SDS011;70424;55.154;14.722;2023-07-31T06:54:30;5.78;;;1.77;;
80961;SDS011;70424;55.154;14.722;2023-07-31T06:56:55;5.70;;;1.60;;
80961;SDS011;70424;55.154;14.722;2023-07-31T06:59:20;4.20;;;1.63;;
80961;SDS011;70424;55.154;14.722;2023-07-31T07:01:45;5.20;;;1.63;;
80961;SDS011;70424;55.154;14.722;2023-07-31T07:04:11;6.00;;;1.42;;
80961;SDS011;70424;55.154;14.722;2023-07-31T07:06:36;6.38;;;1.92;;
80961;SDS011;70424;55.154;14.722;2023-07-31T07:09:02;5.05;;;1.58;;
80961;SDS011;70424;55.154;14.722;2023-07-31T07:11:28;4.65;;;1.42;;
80961;SDS011;70424;55.154;14.722;2023-07-31T07:13:53;3.38;;;1.30;;
80961;SDS011;70424;55.154;14.722;2023-07-31T07:16:18;5.13;;;1.40;;
80961;SDS011;70424;55.154;14.722;2023-07-31T07:18:44;3.45;;;1.40;;
80961;SDS011;70424;55.154;14.722;2023-07-31T07:21:09;3.70;;;1.42;;
80961;SDS011;70424;55.154;14.722;2023-07-31T07:23:39;2.60;;;1.10;;
80961;SDS011;70424;55.154;14.722;2023-07-31T07:26:04;4.15;;;1.70;;
80961;SDS011;70424;55.154;14.722;2023-07-31T07:28:30;2.22;;;1.30;;
80961;SDS011;70424;55.154;14.722;2023-07-31T07:30:55;6.13;;;1.65;;
80961;SDS011;70424;55.154;14.722;2023-07-31T07:33:20;3.28;;;1.13;;
80961;SDS011;70424;55.154;14.722;2023-07-31T07:35:46;4.13;;;1.55;;
80961;SDS011;70424;55.154;14.722;2023-07-31T07:38:11;3.42;;;1.77;;
80961;SDS011;70424;55.154;14.722;2023-07-31T07:40:39;5.55;;;1.85;;
80961;SDS011;70424;55.154;14.722;2023-07-31T07:43:05;3.10;;;1.50;;
80961;SDS011;70424;55.154;14.722;2023-07-31T07:45:31;5.70;;;1.77;;
80961;SDS011;70424;55.154;14.722;2023-07-31T07:47:56;3.03;;;1.23;;
80961;SDS011;70424;55.154;14.722;2023-07-31T07:50:21;5.28;;;1.75;;
80961;SDS011;70424;55.154;14.722;2023-07-31T07:52:47;3.88;;;1.40;;
80961;SDS011;70424;55.154;14.722;2023-07-31T07:55:12;4.30;;;1.50;;
80961;SDS011;70424;55.154;14.722;2023-07-31T07:57:37;7.13;;;1.88;;
80961;SDS011;70424;55.154;14.722;2023-07-31T08:00:03;5.95;;;2.00;;
80961;SDS011;70424;55.154;14.722;2023-07-31T08:02:28;3.78;;;1.50;;
80961;SDS011;70424;55.154;14.722;2023-07-31T08:04:53;5.63;;;1.40;;
80961;SDS011;70424;55.154;14.722;2023-07-31T08:07:19;4.53;;;1.70;;
80961;SDS011;70424;55.154;14.722;2023-07-31T08:09:44;5.63;;;2.05;;
80961;SDS011;70424;55.154;14.722;2023-07-31T08:12:10;7.40;;;2.50;;
80961;SDS011;70424;55.154;14.722;2023-07-31T08:14:36;3.42;;;1.63;;
80961;SDS011;70424;55.154;14.722;2023-07-31T08:17:01;6.00;;;1.80;;
80961;SDS011;70424;55.154;14.722;2023-07-31T08:19:27;4.70;;;1.83;;
80961;SDS011;70424;55.154;14.722;2023-07-31T08:21:52;4.90;;;2.03;;
80961;SDS011;70424;55.154;14.722;2023-07-31T08:24:18;5.95;;;1.83;;
80961;SDS011;70424;55.154;14.722;2023-07-31T08:26:43;3.65;;;1.77;;
80961;SDS011;70424;55.154;14.722;2023-07-31T08:29:08;7.28;;;2.25;;
80961;SDS011;70424;55.154;14.722;2023-07-31T08:31:34;4.60;;;2.00;;
80961;SDS011;70424;55.154;14.722;2023-07-31T08:33:59;4.75;;;2.25;;
80961;SDS011;70424;55.154;14.722;2023-07-31T08:36:25;6.90;;;2.45;;
80961;SDS011;70424;55.154;14.722;2023-07-31T08:38:50;6.07;;;2.10;;
80961;SDS011;70424;55.154;14.722;2023-07-31T08:41:16;4.60;;;2.10;;
80961;SDS011;70424;55.154;14.722;2023-07-31T08:43:49;5.05;;;2.00;;
80961;SDS011;70424;55.154;14.722;2023-07-31T08:46:15;6.95;;;2.35;;
80961;SDS011;70424;55.154;14.722;2023-07-31T08:48:43;6.65;;;2.40;;
80961;SDS011;70424;55.154;14.722;2023-07-31T08:51:09;6.50;;;2.60;;
80961;SDS011;70424;55.154;14.722;2023-07-31T08:53:34;7.32;;;2.80;;
80961;SDS011;70424;55.154;14.722;2023-07-31T08:56:00;6.05;;;2.38;;
80961;SDS011;70424;55.154;14.722;2023-07-31T08:58:27;5.45;;;2.10;;
80961;SDS011;70424;55.154;14.722;2023-07-31T09:00:56;5.95;;;2.33;;
80961;SDS011;70424;55.154;14.722;2023-07-31T09:03:23;6.05;;;2.67;;
80961;SDS011;70424;55.154;14.722;2023-07-31T09:05:50;7.32;;;2.42;;
80961;SDS011;70424;55.154;14.722;2023-07-31T09:08:18;7.22;;;2.45;;
80961;SDS011;70424;55.154;14.722;2023-07-31T09:10:46;7.70;;;2.83;;
80961;SDS011;70424;55.154;14.722;2023-07-31T09:13:12;5.97;;;2.85;;
80961;SDS011;70424;55.154;14.722;2023-07-31T09:15:37;11.65;;;3.00;;
80961;SDS011;70424;55.154;14.722;2023-07-31T09:18:05;6.00;;;2.90;;
80961;SDS011;70424;55.154;14.722;2023-07-31T09:20:31;6.20;;;2.80;;
80961;SDS011;70424;55.154;14.722;2023-07-31T09:23:05;6.35;;;2.75;;
80961;SDS011;70424;55.154;14.722;2023-07-31T09:25:34;4.85;;;2.45;;
80961;SDS011;70424;55.154;14.722;2023-07-31T09:28:00;8.02;;;2.92;;
80961;SDS011;70424;55.154;14.722;2023-07-31T09:30:26;5.38;;;2.45;;
80961;SDS011;70424;55.154;14.722;2023-07-31T09:32:59;7.22;;;3.00;;
80961;SDS011;70424;55.154;14.722;2023-07-31T09:35:31;7.20;;;2.88;;
80961;SDS011;70424;55.154;14.722;2023-07-31T09:38:04;4.57;;;2.33;;
80961;SDS011;70424;55.154;14.722;2023-07-31T09:40:31;7.50;;;3.00;;
80961;SDS011;70424;55.154;14.722;2023-07-31T09:43:01;6.03;;;2.60;;
80961;SDS011;70424;55.154;14.722;2023-07-31T09:45:28;4.70;;;2.08;;
80961;SDS011;70424;55.154;14.722;2023-07-31T09:47:54;9.88;;;3.30;;
80961;SDS011;70424;55.154;14.722;2023-07-31T09:50:22;7.97;;;2.60;;
80961;SDS011;70424;55.154;14.722;2023-07-31T09:52:48;8.93;;;2.80;;
80961;SDS011;70424;55.154;14.722;2023-07-31T09:55:14;6.28;;;2.47;;
80961;SDS011;70424;55.154;14.722;2023-07-31T09:57:40;7.70;;;2.70;;
80961;SDS011;70424;55.154;14.722;2023-07-31T10:00:13;6.03;;;2.78;;
80961;SDS011;70424;55.154;14.722;2023-07-31T10:02:40;6.20;;;2.85;;
80961;SDS011;70424;55.154;14.722;2023-07-31T10:05:07;5.05;;;2.80;;
80961;SDS011;70424;55.154;14.722;2023-07-31T10:07:36;6.45;;;2.90;;
80961;SDS011;70424;55.154;14.722;2023-07-31T10:10:07;6.30;;;2.60;;
80961;SDS011;70424;55.154;14.722;2023-07-31T10:12:34;7.35;;;2.92;;
80961;SDS011;70424;55.154;14.722;2023-07-31T10:15:00;6.60;;;2.80;;
80961;SDS011;70424;55.154;14.722;2023-07-31T10:17:26;6.68;;;2.63;;
80961;SDS011;70424;55.154;14.722;2023-07-31T10:19:54;7.60;;;2.80;;
80961;SDS011;70424;55.154;14.722;2023-07-31T10:22:21;7.90;;;3.10;;
80961;SDS011;70424;55.154;14.722;2023-07-31T10:24:47;6.22;;;3.13;;
80961;SDS011;70424;55.154;14.722;2023-07-31T10:27:15;5.30;;;2.58;;
80961;SDS011;70424;55.154;14.722;2023-07-31T10:29:41;7.88;;;2.83;;
80961;SDS011;70424;55.154;14.722;2023-07-31T10:32:08;5.70;;;2.80;;
80961;SDS011;70424;55.154;14.722;2023-07-31T10:34:36;5.18;;;2.85;;
80961;SDS011;70424;55.154;14.722;2023-07-31T10:39:56;5.70;;;2.70;;
80961;SDS011;70424;55.154;14.722;2023-07-31T10:42:29;6.63;;;2.58;;
80961;SDS011;70424;55.154;14.722;2023-07-31T10:44:59;5.53;;;3.00;;
80961;SDS011;70424;55.154;14.722;2023-07-31T10:47:26;7.25;;;2.70;;
80961;SDS011;70424;55.154;14.722;2023-07-31T10:49:51;4.97;;;2.25;;
80961;SDS011;70424;55.154;14.722;2023-07-31T10:52:20;5.13;;;2.58;;
80961;SDS011;70424;55.154;14.722;2023-07-31T10:54:49;5.53;;;2.67;;
80961;SDS011;70424;55.154;14.722;2023-07-31T10:57:19;5.13;;;2.72;;
80961;SDS011;70424;55.154;14.722;2023-07-31T10:59:50;4.50;;;2.53;;
80961;SDS011;70424;55.154;14.722;2023-07-31T11:02:25;4.85;;;2.88;;
80961;SDS011;70424;55.154;14.722;2023-07-31T11:05:07;4.72;;;2.65;;
80961;SDS011;70424;55.154;14.722;2023-07-31T11:07:48;4.20;;;2.17;;
80961;SDS011;70424;55.154;14.722;2023-07-31T11:10:18;5.40;;;2.50;;
80961;SDS011;70424;55.154;14.722;2023-07-31T11:12:47;5.85;;;2.45;;
80961;SDS011;70424;55.154;14.722;2023-07-31T11:15:12;5.82;;;2.70;;
80961;SDS011;70424;55.154;14.722;2023-07-31T11:17:39;3.53;;;2.42;;
80961;SDS011;70424;55.154;14.722;2023-07-31T11:20:05;4.65;;;2.60;;
80961;SDS011;70424;55.154;14.722;2023-07-31T11:22:32;5.65;;;2.70;;
80961;SDS011;70424;55.154;14.722;2023-07-31T11:24:59;5.22;;;2.53;;
80961;SDS011;70424;55.154;14.722;2023-07-31T11:27:27;4.63;;;2.70;;
80961;SDS011;70424;55.154;14.722;2023-07-31T11:29:53;6.20;;;2.53;;
80961;SDS011;70424;55.154;14.722;2023-07-31T11:32:18;4.53;;;2.50;;
80961;SDS011;70424;55.154;14.722;2023-07-31T11:34:53;4.35;;;2.90;;
80961;SDS011;70424;55.154;14.722;2023-07-31T11:37:18;4.60;;;2.45;;
80961;SDS011;70424;55.154;14.722;2023-07-31T11:39:58;4.20;;;2.53;;
80961;SDS011;70424;55.154;14.722;2023-07-31T11:42:26;5.32;;;2.55;;
80961;SDS011;70424;55.154;14.722;2023-07-31T11:44:52;3.55;;;2.25;;
80961;SDS011;70424;55.154;14.722;2023-07-31T11:47:17;5.13;;;2.60;;
80961;SDS011;70424;55.154;14.722;2023-07-31T11:49:43;4.78;;;2.33;;
80961;SDS011;70424;55.154;14.722;2023-07-31T11:52:08;4.55;;;2.20;;
80961;SDS011;70424;55.154;14.722;2023-07-31T11:54:35;4.93;;;2.45;;
80961;SDS011;70424;55.154;14.722;2023-07-31T11:57:00;4.68;;;2.75;;
80961;SDS011;70424;55.154;14.722;2023-07-31T11:59:26;4.93;;;2.60;;
80961;SDS011;70424;55.154;14.722;2023-07-31T12:01:52;5.32;;;2.30;;
80961;SDS011;70424;55.154;14.722;2023-07-31T12:04:18;3.35;;;2.00;;
80961;SDS011;70424;55.154;14.722;2023-07-31T12:06:46;5.82;;;2.70;;
80961;SDS011;70424;55.154;14.722;2023-07-31T12:09:13;5.30;;;2.72;;
80961;SDS011;70424;55.154;14.722;2023-07-31T12:11:46;3.67;;;2.42;;
80961;SDS011;70424;55.154;14.722;2023-07-31T12:14:22;5.47;;;2.30;;
80961;SDS011;70424;55.154;14.722;2023-07-31T12:16:54;5.57;;;2.72;;
80961;SDS011;70424;55.154;14.722;2023-07-31T12:19:26;6.47;;;2.55;;
80961;SDS011;70424;55.154;14.722;2023-07-31T12:21:58;4.68;;;2.65;;
80961;SDS011;70424;55.154;14.722;2023-07-31T12:24:26;6.22;;;2.28;;
80961;SDS011;70424;55.154;14.722;2023-07-31T12:26:51;3.70;;;2.30;;
80961;SDS011;70424;55.154;14.722;2023-07-31T12:29:17;3.22;;;2.30;;
80961;SDS011;70424;55.154;14.722;2023-07-31T12:31:43;3.92;;;2.20;;
80961;SDS011;70424;55.154;14.722;2023-07-31T12:34:18;3.42;;;2.10;;
80961;SDS011;70424;55.154;14.722;2023-07-31T12:36:46;3.40;;;2.00;;
80961;SDS011;70424;55.154;14.722;2023-07-31T12:39:11;3.70;;;1.95;;
80961;SDS011;70424;55.154;14.722;2023-07-31T12:41:37;4.82;;;2.20;;
80961;SDS011;70424;55.154;14.722;2023-07-31T12:44:02;2.50;;;1.98;;
80961;SDS011;70424;55.154;14.722;2023-07-31T12:46:28;3.03;;;1.90;;
80961;SDS011;70424;55.154;14.722;2023-07-31T12:48:54;2.97;;;1.83;;
80961;SDS011;70424;55.154;14.722;2023-07-31T12:51:19;4.43;;;2.22;;
80961;SDS011;70424;55.154;14.722;2023-07-31T12:53:45;4.25;;;2.20;;
80961;SDS011;70424;55.154;14.722;2023-07-31T12:56:11;5.40;;;2.20;;
80961;SDS011;70424;55.154;14.722;2023-07-31T12:58:36;4.22;;;2.10;;
80961;SDS011;70424;55.154;14.722;2023-07-31T13:01:01;4.50;;;2.05;;
80961;SDS011;70424;55.154;14.722;2023-07-31T13:03:27;3.95;;;2.20;;
80961;SDS011;70424;55.154;14.722;2023-07-31T13:05:52;4.38;;;1.98;;
80961;SDS011;70424;55.154;14.722;2023-07-31T13:08:17;4.10;;;2.00;;
80961;SDS011;70424;55.154;14.722;2023-07-31T13:10:43;3.78;;;2.05;;
80961;SDS011;70424;55.154;14.722;2023-07-31T13:13:09;4.30;;;2.30;;
80961;SDS011;70424;55.154;14.722;2023-07-31T13:15:34;4.38;;;2.20;;
80961;SDS011;70424;55.154;14.722;2023-07-31T13:18:00;3.13;;;1.90;;
80961;SDS011;70424;55.154;14.722;2023-07-31T13:20:25;3.75;;;1.88;;
80961;SDS011;70424;55.154;14.722;2023-07-31T13:22:51;4.13;;;2.00;;
80961;SDS011;70424;55.154;14.722;2023-07-31T13:25:16;3.80;;;1.80;;
80961;SDS011;70424;55.154;14.722;2023-07-31T13:27:41;4.53;;;2.08;;
80961;SDS011;70424;55.154;14.722;2023-07-31T13:30:07;3.47;;;2.00;;
80961;SDS011;70424;55.154;14.722;2023-07-31T13:32:32;4.80;;;2.22;;
80961;SDS011;70424;55.154;14.722;2023-07-31T13:34:58;4.05;;;2.00;;
80961;SDS011;70424;55.154;14.722;2023-07-31T13:37:23;3.58;;;1.98;;
80961;SDS011;70424;55.154;14.722;2023-07-31T13:39:49;3.72;;;2.05;;
80961;SDS011;70424;55.154;14.722;2023-07-31T13:42:14;3.42;;;2.08;;
80961;SDS011;70424;55.154;14.722;2023-07-31T13:44:40;3.10;;;1.90;;
80961;SDS011;70424;55.154;14.722;2023-07-31T13:47:06;3.63;;;1.90;;
80961;SDS011;70424;55.154;14.722;2023-07-31T13:49:33;4.03;;;1.80;;
80961;SDS011;70424;55.154;14.722;2023-07-31T13:51:59;2.28;;;1.90;;
80961;SDS011;70424;55.154;14.722;2023-07-31T13:54:24;3.40;;;1.90;;
80961;SDS011;70424;55.154;14.722;2023-07-31T13:56:53;2.95;;;1.88;;
80961;SDS011;70424;55.154;14.722;2023-07-31T13:59:19;3.03;;;1.88;;
80961;SDS011;70424;55.154;14.722;2023-07-31T14:01:45;3.03;;;2.17;;
80961;SDS011;70424;55.154;14.722;2023-07-31T14:04:11;4.28;;;2.05;;
80961;SDS011;70424;55.154;14.722;2023-07-31T14:06:36;2.65;;;1.85;;
80961;SDS011;70424;55.154;14.722;2023-07-31T14:09:02;4.50;;;1.83;;
80961;SDS011;70424;55.154;14.722;2023-07-31T14:11:28;4.40;;;1.77;;
80961;SDS011;70424;55.154;14.722;2023-07-31T14:13:54;4.35;;;1.88;;
80961;SDS011;70424;55.154;14.722;2023-07-31T14:16:21;3.13;;;1.75;;
80961;SDS011;70424;55.154;14.722;2023-07-31T14:18:47;4.05;;;2.05;;
80961;SDS011;70424;55.154;14.722;2023-07-31T14:21:12;5.30;;;1.95;;
80961;SDS011;70424;55.154;14.722;2023-07-31T14:23:37;3.95;;;1.70;;
80961;SDS011;70424;55.154;14.722;2023-07-31T14:26:03;2.67;;;1.80;;
80961;SDS011;70424;55.154;14.722;2023-07-31T14:28:28;4.80;;;2.13;;
80961;SDS011;70424;55.154;14.722;2023-07-31T14:30:53;3.33;;;1.80;;
80961;SDS011;70424;55.154;14.722;2023-07-31T14:33:19;3.70;;;1.83;;
80961;SDS011;70424;55.154;14.722;2023-07-31T14:35:44;4.35;;;1.73;;